createdAt,value
2018-02-16T00:02:10.263Z,58.60
2018-02-16T00:04:36.636Z,59.43
2018-02-16T00:07:03.724Z,62.43
2018-02-16T00:09:30.104Z,55.57
2018-02-16T00:11:57.316Z,60.90
2018-02-16T00:14:23.678Z,57.40
2018-02-16T00:16:50.788Z,68.53
2018-02-16T00:19:17.160Z,54.77
2018-02-16T00:21:44.275Z,55.07
2018-02-16T00:24:10.649Z,63.47
2018-02-16T00:26:37.787Z,56.00
2018-02-16T00:29:04.162Z,58.10
2018-02-16T00:31:30.518Z,56.77
2018-02-16T00:33:56.900Z,61.83
2018-02-16T00:36:23.269Z,54.10
2018-02-16T00:38:49.634Z,52.73
2018-02-16T00:41:16.738Z,58.57
2018-02-16T00:43:43.438Z,72.37
2018-02-16T00:46:10.538Z,54.37
2018-02-16T00:48:36.906Z,54.90
2018-02-16T00:51:04.022Z,53.07
2018-02-16T00:53:30.398Z,58.13
2018-02-16T00:55:57.515Z,56.90
2018-02-16T00:58:23.883Z,64.20
2018-02-16T01:00:50.245Z,62.33
2018-02-16T01:03:16.674Z,59.40
2018-02-16T01:05:43.122Z,54.63
2018-02-16T01:08:09.549Z,58.10
2018-02-16T01:10:35.894Z,61.17
2018-02-16T01:13:02.258Z,65.60
2018-02-16T01:15:29.451Z,58.20
2018-02-16T01:17:55.822Z,52.40
2018-02-16T01:20:22.188Z,56.50
2018-02-16T01:22:49.351Z,58.47
2018-02-16T01:25:15.725Z,66.27
2018-02-16T01:27:42.084Z,60.63
2018-02-16T01:30:09.208Z,58.97
2018-02-16T01:32:35.566Z,61.20
2018-02-16T01:35:02.686Z,65.73
2018-02-16T01:37:29.046Z,60.60
2018-02-16T01:39:55.434Z,62.70
2018-02-16T01:42:21.836Z,68.97
2018-02-16T01:44:48.182Z,61.60
2018-02-16T01:47:14.542Z,57.53
2018-02-16T01:50:01.975Z,63.97
2018-02-16T01:52:28.348Z,65.00
2018-02-16T01:54:56.301Z,64.27
2018-02-16T01:57:23.386Z,64.10
2018-02-16T01:59:49.772Z,59.53
2018-02-16T02:02:16.979Z,64.50
2018-02-16T02:04:43.349Z,70.90
2018-02-16T02:07:09.712Z,64.03
2018-02-16T02:09:36.094Z,65.63
2018-02-16T02:12:02.474Z,76.03
2018-02-16T02:14:29.583Z,68.87
2018-02-16T02:16:55.948Z,65.37
2018-02-16T02:19:23.083Z,67.77
2018-02-16T02:21:50.201Z,79.63
2018-02-16T02:24:16.558Z,67.90
2018-02-16T02:26:43.678Z,69.93
2018-02-16T02:29:10.064Z,69.50
2018-02-16T02:31:36.429Z,68.13
2018-02-16T02:34:02.807Z,74.13
2018-02-16T02:36:29.892Z,64.90
2018-02-16T02:38:56.391Z,72.20
2018-02-16T02:41:23.506Z,76.90
2018-02-16T02:43:49.860Z,69.40
2018-02-16T02:46:16.225Z,70.90
2018-02-16T02:48:42.611Z,79.33
2018-02-16T02:51:09.026Z,76.20
2018-02-16T02:53:35.358Z,70.33
2018-02-16T02:56:01.725Z,73.70
2018-02-16T02:58:28.832Z,74.77
2018-02-16T03:00:55.203Z,73.73
2018-02-16T03:03:22.319Z,96.53
2018-02-16T03:05:48.673Z,77.43
2018-02-16T03:08:16.517Z,71.97
2018-02-16T03:10:42.893Z,73.37
2018-02-16T03:13:10.000Z,79.77
2018-02-16T03:15:36.360Z,79.17
2018-02-16T03:18:03.455Z,89.90
2018-02-16T03:20:29.830Z,90.80
2018-02-16T03:22:56.171Z,79.80
2018-02-16T03:25:23.290Z,79.33
2018-02-16T03:27:49.668Z,91.80
2018-02-16T03:30:16.762Z,71.50
2018-02-16T03:32:43.123Z,78.10
2018-02-16T03:35:09.506Z,82.97
2018-02-16T03:37:36.613Z,77.13
2018-02-16T03:40:03.706Z,80.13
2018-02-16T03:42:30.080Z,89.17
2018-02-16T03:44:57.918Z,82.20
2018-02-16T03:47:24.271Z,86.20
2018-02-16T03:49:50.632Z,81.17
2018-02-16T03:52:17.796Z,79.97
2018-02-16T03:54:44.171Z,94.33
2018-02-16T03:57:10.548Z,85.10
2018-02-16T03:59:37.670Z,86.50
2018-02-16T04:02:04.799Z,94.80
2018-02-16T04:04:31.154Z,83.87
2018-02-16T04:06:57.721Z,93.77
2018-02-16T04:09:24.114Z,93.00
2018-02-16T04:11:50.482Z,91.10
2018-02-16T04:14:16.854Z,85.07
2018-02-16T04:16:43.274Z,96.63
2018-02-16T04:19:09.645Z,84.57
2018-02-16T04:21:36.028Z,88.23
2018-02-16T04:24:02.404Z,86.13
2018-02-16T04:26:28.778Z,81.13
2018-02-16T04:28:55.138Z,93.87
2018-02-16T04:31:21.497Z,93.17
2018-02-16T04:33:47.863Z,102.07
2018-02-16T04:36:14.218Z,89.30
2018-02-16T04:38:40.583Z,102.03
2018-02-16T04:41:06.957Z,93.77
2018-02-16T04:43:33.331Z,90.95
2018-02-16T04:45:59.719Z,101.70
2018-02-16T04:48:26.088Z,88.87
2018-02-16T04:50:52.450Z,86.23
2018-02-16T04:53:18.828Z,98.03
2018-02-16T04:55:45.206Z,99.57
2018-02-16T04:58:13.042Z,101.03
2018-02-16T05:00:39.418Z,104.17
2018-02-16T05:03:05.805Z,92.33
2018-02-16T05:05:32.185Z,93.45
2018-02-16T05:07:59.317Z,99.53
2018-02-16T05:10:25.695Z,91.70
2018-02-16T05:12:52.068Z,99.47
2018-02-16T05:15:18.432Z,100.80
2018-02-16T05:17:45.551Z,117.43
2018-02-16T05:20:11.927Z,100.77
2018-02-16T05:22:38.459Z,99.28
2018-02-16T05:25:04.804Z,108.73
2018-02-16T05:27:31.162Z,117.27
2018-02-16T05:29:57.536Z,97.80
2018-02-16T05:32:24.671Z,113.93
2018-02-16T05:34:51.072Z,103.47
2018-02-16T05:37:17.471Z,106.00
2018-02-16T05:39:43.835Z,104.67
2018-02-16T05:42:10.204Z,102.77
2018-02-16T05:44:36.565Z,102.03
2018-02-16T05:47:03.672Z,109.03
2018-02-16T05:49:30.040Z,96.37
2018-02-16T05:51:57.175Z,97.70
2018-02-16T05:54:24.286Z,100.37
2018-02-16T05:56:50.676Z,101.50
2018-02-16T05:59:17.037Z,109.47
2018-02-16T06:01:43.422Z,99.80
2018-02-16T06:04:10.541Z,101.23
2018-02-16T06:06:36.923Z,108.77
2018-02-16T06:09:03.358Z,96.13
2018-02-16T06:11:29.744Z,101.83
2018-02-16T06:13:57.647Z,102.03
2018-02-16T06:16:24.034Z,95.07
2018-02-16T06:18:50.392Z,119.67
2018-02-16T06:21:17.491Z,130.33
2018-02-16T06:23:43.926Z,110.27
2018-02-16T06:26:10.312Z,110.80
2018-02-16T06:28:37.402Z,103.30
2018-02-16T06:31:03.782Z,128.40
2018-02-16T06:33:30.135Z,105.60
2018-02-16T06:35:56.513Z,111.83
2018-02-16T06:38:22.882Z,108.30
2018-02-16T06:40:50.027Z,92.97
2018-02-16T06:43:16.394Z,95.40
2018-02-16T06:45:42.813Z,103.13
2018-02-16T06:48:09.228Z,103.17
2018-02-16T06:50:36.345Z,100.20
2018-02-16T06:53:02.757Z,104.93
2018-02-16T06:55:29.172Z,101.23
2018-02-16T06:57:55.592Z,92.47
2018-02-16T07:00:21.973Z,103.10
2018-02-16T07:02:48.376Z,110.40
2018-02-16T07:05:14.756Z,121.60
2018-02-16T07:07:41.882Z,101.10
2018-02-16T07:10:08.284Z,100.70
2018-02-16T07:12:34.706Z,93.87
2018-02-16T07:15:01.098Z,98.60
2018-02-16T07:17:28.225Z,108.77
2018-02-16T07:19:54.628Z,119.73
2018-02-16T07:22:21.023Z,108.50
2018-02-16T07:24:47.438Z,106.70
2018-02-16T07:27:14.574Z,102.07
2018-02-16T07:29:40.957Z,96.73
2018-02-16T07:32:07.373Z,104.80
2018-02-16T07:34:34.498Z,100.70
2018-02-16T07:37:00.884Z,107.50
2018-02-16T07:39:27.277Z,112.27
2018-02-16T07:44:28.107Z,95.90
2018-02-16T07:46:54.486Z,99.80
2018-02-16T07:49:21.632Z,99.30
2018-02-16T07:51:48.751Z,104.17
2018-02-16T07:54:15.150Z,93.47
2018-02-16T07:56:41.513Z,97.97
2018-02-16T07:59:07.896Z,102.20
2018-02-16T08:01:34.238Z,107.03
2018-02-16T08:04:00.598Z,90.90
2018-02-16T08:06:26.974Z,85.30
2018-02-16T08:08:53.331Z,94.87
2018-02-16T08:11:19.710Z,83.20
2018-02-16T08:13:46.064Z,87.60
2018-02-16T08:16:13.171Z,90.67
2018-02-16T08:18:39.524Z,91.57
2018-02-16T08:21:05.912Z,93.80
2018-02-16T08:23:32.278Z,88.30
2018-02-16T08:25:58.649Z,83.60
2018-02-16T08:28:25.076Z,89.13
2018-02-16T08:30:51.530Z,86.43
2018-02-16T08:33:17.918Z,92.97
2018-02-16T08:35:45.019Z,88.53
2018-02-16T08:38:11.374Z,97.13
2018-02-16T08:40:37.747Z,65.17
2018-02-16T08:43:04.106Z,72.20
2018-02-16T08:45:30.471Z,65.07
2018-02-16T08:47:58.324Z,72.10
2018-02-16T08:50:24.675Z,65.53
2018-02-16T08:52:52.534Z,63.83
2018-02-16T08:55:18.905Z,73.20
2018-02-16T08:57:46.041Z,88.67
2018-02-16T09:00:12.409Z,90.60
2018-02-16T09:02:38.792Z,73.33
2018-02-16T09:05:05.164Z,74.53
2018-02-16T09:07:31.547Z,79.97
2018-02-16T09:09:59.407Z,64.80
2018-02-16T09:12:25.799Z,74.53
2018-02-16T09:14:52.167Z,62.60
2018-02-16T09:17:20.025Z,68.43
2018-02-16T09:19:46.411Z,70.00
2018-02-16T09:22:12.813Z,50.90
2018-02-16T09:24:39.182Z,36.90
2018-02-16T09:27:05.559Z,27.67
2018-02-16T09:29:31.929Z,27.73
2018-02-16T09:31:59.060Z,31.93
2018-02-16T09:34:26.220Z,29.50
2018-02-16T09:36:54.795Z,30.23
2018-02-16T09:39:23.284Z,24.80
2018-02-16T09:41:50.378Z,24.50
2018-02-16T09:44:16.751Z,27.30
2018-02-16T09:46:43.127Z,24.13
2018-02-16T09:49:09.485Z,20.90
2018-02-16T09:51:35.843Z,20.47
2018-02-16T09:54:02.211Z,23.37
2018-02-16T09:56:28.622Z,20.63
2018-02-16T09:58:55.729Z,23.43
2018-02-16T10:01:22.126Z,26.30
2018-02-16T10:03:48.504Z,23.70
2018-02-16T10:06:14.890Z,24.60
2018-02-16T10:08:41.471Z,26.60
2018-02-16T10:11:07.846Z,23.43
2018-02-16T10:13:34.962Z,19.90
2018-02-16T10:16:01.330Z,15.60
2018-02-16T10:18:27.709Z,21.83
2018-02-16T10:20:54.082Z,23.30
2018-02-16T10:23:21.178Z,17.93
2018-02-16T10:25:47.550Z,13.50
2018-02-16T10:28:15.407Z,12.20
2018-02-16T10:30:41.780Z,11.27
2018-02-16T10:33:08.224Z,13.30
2018-02-16T10:35:34.638Z,8.70
2018-02-16T10:38:01.010Z,10.90
2018-02-16T10:40:27.368Z,12.30
2018-02-16T10:42:53.776Z,12.47
2018-02-16T10:45:20.251Z,18.53
2018-02-16T10:47:47.334Z,10.93
2018-02-16T10:50:13.708Z,12.90
2018-02-16T10:52:40.089Z,11.20
2018-02-16T10:55:06.444Z,12.17
2018-02-16T10:57:32.813Z,18.73
2018-02-16T10:59:59.926Z,14.90
2018-02-16T11:02:32.314Z,11.00
2018-02-16T11:05:04.658Z,13.67
2018-02-16T11:07:37.246Z,16.00
2018-02-16T11:10:03.623Z,14.63
2018-02-16T11:12:30.725Z,14.47
2018-02-16T11:14:57.083Z,13.00
2018-02-16T11:17:24.201Z,13.13
2018-02-16T11:19:50.569Z,16.80
2018-02-16T11:22:16.928Z,15.30
2018-02-16T11:24:44.092Z,11.97
2018-02-16T11:27:11.206Z,11.03
2018-02-16T11:29:37.565Z,11.70
2018-02-16T11:32:04.675Z,11.80
2018-02-16T11:34:32.530Z,9.23
2018-02-16T11:36:59.647Z,9.53
2018-02-16T11:39:26.059Z,10.17
2018-02-16T11:41:52.412Z,13.00
2018-02-16T11:44:18.808Z,11.70
2018-02-16T11:46:46.106Z,11.53
2018-02-16T11:49:12.497Z,10.13
2018-02-16T11:51:39.703Z,11.93
2018-02-16T11:54:06.068Z,11.67
2018-02-16T11:56:33.179Z,10.37
2018-02-16T11:58:59.530Z,13.13
2018-02-16T12:01:25.920Z,8.90
2018-02-16T12:03:52.295Z,9.27
2018-02-16T12:06:18.738Z,9.60
2018-02-16T12:08:45.885Z,13.63
2018-02-16T12:11:12.269Z,12.90
2018-02-16T12:13:38.640Z,9.20
2018-02-16T12:16:05.036Z,11.13
2018-02-16T12:18:31.393Z,15.37
2018-02-16T12:20:57.779Z,9.37
2018-02-16T12:23:24.187Z,10.43
2018-02-16T12:25:50.565Z,12.33
2018-02-16T12:28:16.918Z,13.03
2018-02-16T12:30:43.278Z,11.40
2018-02-16T12:33:09.667Z,12.63
2018-02-16T12:35:36.091Z,13.30
2018-02-16T12:38:02.492Z,12.03
2018-02-16T12:40:29.606Z,13.70
2018-02-16T12:42:56.711Z,16.03
2018-02-16T12:45:23.077Z,14.07
2018-02-16T12:47:50.975Z,10.13
2018-02-16T12:50:18.114Z,12.70
2018-02-16T12:52:44.474Z,13.47
2018-02-16T12:55:11.574Z,14.93
2018-02-16T12:57:37.938Z,13.70
2018-02-16T13:00:05.042Z,16.40
2018-02-16T13:02:31.411Z,19.30
2018-02-16T13:04:57.782Z,19.33
2018-02-16T13:07:24.166Z,25.13
2018-02-16T13:09:50.549Z,16.50
2018-02-16T13:12:17.002Z,18.97
2018-02-16T13:14:44.911Z,17.43
2018-02-16T13:17:12.047Z,18.73
2018-02-16T13:19:39.162Z,20.90
2018-02-16T13:22:05.577Z,22.97
2018-02-16T13:24:31.964Z,13.10
2018-02-16T13:26:59.062Z,14.27
2018-02-16T13:29:25.438Z,20.47
2018-02-16T13:31:51.806Z,16.73
2018-02-16T13:34:19.709Z,19.03
2018-02-16T13:36:46.090Z,16.80
2018-02-16T13:39:13.231Z,17.80
2018-02-16T13:41:40.328Z,19.73
2018-02-16T13:44:06.685Z,19.10
2018-02-16T13:46:33.047Z,17.17
2018-02-16T13:49:00.170Z,23.77
2018-02-16T13:51:26.545Z,18.27
2018-02-16T13:53:54.183Z,21.70
2018-02-16T13:56:21.424Z,24.20
2018-02-16T13:58:49.378Z,21.13
2018-02-16T14:01:15.764Z,20.47
2018-02-16T14:03:42.137Z,18.57
2018-02-16T14:06:08.497Z,22.83
2018-02-16T14:08:36.349Z,15.80
2018-02-16T14:11:04.239Z,18.10
2018-02-16T14:13:31.391Z,19.07
2018-02-16T14:15:57.863Z,17.37
2018-02-16T14:18:24.258Z,17.73
2018-02-16T14:20:51.385Z,18.73
2018-02-16T14:23:17.748Z,18.70
2018-02-16T14:25:44.869Z,20.03
2018-02-16T14:28:11.232Z,17.20
2018-02-16T14:30:37.596Z,22.40
2018-02-16T14:33:03.996Z,18.87
2018-02-16T14:35:30.365Z,24.33
2018-02-16T14:37:56.759Z,17.73
2018-02-16T14:40:23.859Z,16.77
2018-02-16T14:42:50.251Z,19.70
2018-02-16T14:45:16.644Z,23.87
2018-02-16T14:47:43.062Z,17.70
2018-02-16T14:50:09.459Z,15.20
2018-02-16T14:52:35.923Z,16.40
2018-02-16T14:55:02.362Z,18.93
2018-02-16T14:57:28.732Z,20.13
2018-02-16T14:59:55.114Z,16.53
2018-02-16T15:02:21.507Z,17.13
2018-02-16T15:04:47.885Z,19.53
2018-02-16T15:07:15.746Z,18.07
2018-02-16T15:09:42.154Z,15.03
2018-02-16T15:12:08.518Z,19.27
2018-02-16T15:14:34.903Z,16.60
2018-02-16T15:17:01.310Z,15.80
2018-02-16T15:19:28.479Z,13.00
2018-02-16T15:21:54.909Z,20.97
2018-02-16T15:24:21.323Z,17.97
2018-02-16T15:26:48.454Z,30.90
2018-02-16T15:29:14.814Z,16.47
2018-02-16T15:31:41.210Z,15.67
2018-02-16T15:34:07.582Z,17.20
2018-02-16T15:36:33.973Z,16.07
2018-02-16T15:39:00.351Z,23.33
2018-02-16T15:41:26.717Z,20.40
2018-02-16T15:43:53.073Z,27.40
2018-02-16T15:46:19.448Z,16.80
2018-02-16T15:48:45.824Z,17.03
2018-02-16T15:51:12.203Z,17.63
2018-02-16T15:53:39.303Z,18.23
2018-02-16T15:56:05.664Z,27.20
2018-02-16T15:58:32.801Z,21.87
2018-02-16T16:01:00.017Z,31.00
2018-02-16T16:03:27.363Z,41.90
2018-02-16T16:08:47.739Z,29.53
2018-02-16T16:11:14.207Z,18.87
2018-02-16T16:13:40.569Z,19.77
2018-02-16T16:16:06.941Z,24.17
2018-02-16T16:18:33.316Z,24.87
2018-02-16T16:20:59.844Z,23.73
2018-02-16T16:23:26.215Z,25.63
2018-02-16T16:25:53.334Z,27.00
2018-02-16T16:28:19.712Z,25.43
2018-02-16T16:30:47.139Z,30.27
2018-02-16T16:33:13.521Z,28.83
2018-02-16T16:35:40.524Z,26.80
2018-02-16T16:38:08.355Z,27.93
2018-02-16T16:40:34.767Z,28.77
2018-02-16T16:43:01.122Z,28.17
2018-02-16T16:45:27.487Z,30.70
2018-02-16T16:47:53.860Z,39.40
2018-02-16T16:50:20.242Z,38.17
2018-02-16T16:52:47.400Z,34.00
2018-02-16T16:55:13.769Z,30.57
2018-02-16T16:57:40.159Z,37.63
2018-02-16T17:00:06.526Z,28.90
2018-02-16T17:02:32.867Z,35.20
2018-02-16T17:04:59.316Z,25.17
2018-02-16T17:07:25.717Z,36.43
2018-02-16T17:09:52.098Z,42.00
2018-02-16T17:12:19.408Z,55.23
2018-02-16T17:14:45.809Z,98.57
2018-02-16T17:17:12.187Z,63.47
2018-02-16T17:22:10.654Z,41.70
2018-02-16T17:24:37.767Z,32.40
2018-02-16T17:27:04.352Z,30.67
2018-02-16T17:29:30.722Z,34.03
2018-02-16T17:31:57.144Z,32.87
2018-02-16T17:34:23.552Z,31.20
2018-02-16T17:36:49.938Z,31.43
2018-02-16T17:39:16.308Z,30.17
2018-02-16T17:41:43.418Z,54.00
2018-02-16T17:44:09.793Z,52.43
2018-02-16T17:46:36.886Z,46.47
2018-02-16T17:49:03.264Z,45.17
2018-02-16T17:51:30.355Z,41.40
2018-02-16T17:53:56.719Z,54.13
2018-02-16T17:56:23.095Z,47.63
2018-02-16T17:58:49.459Z,43.77
2018-02-16T18:01:15.823Z,46.40
2018-02-16T18:03:42.918Z,47.30
2018-02-16T18:06:09.300Z,39.30
2018-02-16T18:08:36.425Z,43.33
2018-02-16T18:11:02.842Z,40.43
2018-02-16T18:13:29.198Z,34.43
2018-02-16T18:15:55.555Z,39.57
2018-02-16T18:18:22.678Z,38.37
2018-02-16T18:20:49.076Z,36.50
2018-02-16T18:23:15.452Z,35.77
2018-02-16T18:25:41.817Z,36.03
2018-02-16T18:28:08.171Z,39.43
2018-02-16T18:30:34.587Z,39.27
2018-02-16T18:33:01.008Z,33.80
2018-02-16T18:35:27.408Z,39.97
2018-02-16T18:37:54.693Z,40.43
2018-02-16T18:40:21.868Z,30.77
2018-02-16T18:42:48.218Z,36.27
2018-02-16T18:45:14.594Z,43.73
2018-02-16T18:47:40.996Z,38.90
2018-02-16T18:50:07.378Z,41.80
2018-02-16T18:52:33.741Z,49.43
2018-02-16T18:55:00.106Z,76.83
2018-02-16T18:57:27.213Z,86.90
2018-02-16T18:59:53.614Z,74.03
2018-02-16T19:02:19.984Z,70.60
2018-02-16T19:04:46.417Z,44.17
2018-02-16T19:07:13.684Z,44.70
2018-02-16T19:09:40.070Z,46.63
2018-02-16T19:12:06.526Z,48.20
2018-02-16T19:14:34.227Z,46.58
2018-02-16T19:17:00.598Z,44.40
2018-02-16T19:19:26.972Z,49.95
2018-02-16T19:21:53.343Z,39.20
2018-02-16T19:24:20.463Z,41.20
2018-02-16T19:26:46.827Z,45.20
2018-02-16T19:29:13.987Z,44.78
2018-02-16T19:31:40.367Z,51.93
2018-02-16T19:34:06.748Z,101.28
2018-02-16T19:36:33.144Z,85.38
2018-02-16T19:38:59.571Z,59.60
2018-02-16T19:41:25.959Z,53.75
2018-02-16T19:43:52.382Z,70.68
2018-02-16T19:46:18.848Z,73.90
2018-02-16T19:48:45.243Z,87.12
2018-02-16T19:51:11.661Z,91.70
2018-02-16T19:53:38.774Z,66.03
2018-02-16T19:56:05.159Z,59.80
2018-02-16T19:58:32.276Z,69.30
2018-02-16T20:00:58.647Z,74.30
2018-02-16T20:03:25.010Z,81.47
2018-02-16T20:05:51.395Z,127.17
2018-02-16T20:08:17.831Z,143.62
2018-02-16T20:10:44.222Z,212.27
2018-02-16T20:13:10.621Z,169.98
2018-02-16T20:15:36.987Z,133.90
2018-02-16T20:18:03.382Z,221.80
2018-02-16T20:20:29.738Z,222.35
2018-02-16T20:22:56.120Z,189.32
2018-02-16T20:25:22.515Z,249.05
2018-02-16T20:27:49.093Z,285.90
2018-02-16T20:30:15.466Z,166.40
2018-02-16T20:32:41.831Z,388.50
2018-02-16T20:35:08.938Z,79.53
2018-02-16T20:37:35.324Z,224.90
2018-02-16T20:40:02.695Z,237.87
2018-02-16T20:42:29.094Z,352.70
2018-02-16T20:44:56.195Z,249.88
2018-02-16T20:47:22.563Z,342.93
2018-02-16T20:49:48.917Z,104.20
2018-02-16T20:52:28.565Z,147.83
2018-02-16T20:54:54.931Z,394.30
2018-02-16T20:57:21.299Z,130.67
2018-02-16T20:59:47.728Z,229.20
2018-02-16T21:02:14.082Z,496.53
2018-02-16T21:04:41.198Z,363.40
2018-02-16T21:07:07.605Z,245.93
2018-02-16T21:09:34.015Z,223.07
2018-02-16T21:12:00.377Z,281.87
2018-02-16T21:14:26.764Z,89.60
2018-02-16T21:16:53.168Z,113.07
2018-02-16T21:19:20.266Z,114.77
2018-02-16T21:21:46.634Z,135.97
2018-02-16T21:24:12.992Z,52.83
2018-02-16T21:26:40.113Z,49.33
2018-02-16T21:29:06.477Z,123.90
2018-02-16T21:31:33.587Z,102.83
2018-02-16T21:33:59.944Z,67.07
2018-02-16T21:36:26.385Z,85.30
2018-02-16T21:38:53.514Z,89.83
2018-02-16T21:41:19.870Z,116.30
2018-02-16T21:43:47.168Z,191.53
2018-02-16T21:46:13.554Z,64.30
2018-02-16T21:48:40.669Z,101.73
2018-02-16T21:51:07.046Z,147.33
2018-02-16T21:53:34.168Z,54.67
2018-02-16T21:56:01.284Z,63.30
2018-02-16T21:58:27.654Z,164.37
2018-02-16T22:00:54.023Z,98.43
2018-02-16T22:03:20.453Z,128.33
2018-02-16T22:05:46.828Z,49.70
2018-02-16T22:08:13.214Z,268.40
2018-02-16T22:10:39.602Z,337.00
2018-02-16T22:13:07.451Z,182.07
2018-02-16T22:15:33.818Z,104.33
2018-02-16T22:18:00.922Z,169.73
2018-02-16T22:20:27.295Z,241.60
2018-02-16T22:22:53.697Z,253.10
2018-02-16T22:25:20.070Z,145.30
2018-02-16T22:27:47.172Z,148.00
2018-02-16T22:30:13.532Z,175.10
2018-02-16T22:32:39.996Z,261.23
2018-02-16T22:35:06.422Z,287.30
2018-02-16T22:37:33.527Z,166.33
2018-02-16T22:39:59.911Z,67.70
2018-02-16T22:42:26.262Z,69.53
2018-02-16T22:44:52.619Z,79.97
2018-02-16T22:47:18.970Z,193.67
2018-02-16T22:49:45.327Z,124.57
2018-02-16T22:52:12.487Z,301.33
2018-02-16T22:54:38.909Z,62.40
2018-02-16T22:57:06.065Z,51.93
2018-02-16T22:59:32.435Z,130.77
2018-02-16T23:01:58.800Z,431.30
2018-02-16T23:04:25.166Z,469.73
2018-02-16T23:06:51.622Z,411.53
2018-02-16T23:09:17.994Z,332.23
2018-02-16T23:11:45.095Z,196.70
2018-02-16T23:14:11.469Z,56.90
2018-02-16T23:16:39.316Z,217.73
2018-02-16T23:19:05.667Z,106.97
2018-02-16T23:21:32.066Z,83.53
2018-02-16T23:23:58.425Z,148.87
2018-02-16T23:26:24.769Z,240.50
2018-02-16T23:28:51.124Z,283.20
2018-02-16T23:31:17.554Z,200.17
2018-02-16T23:33:43.921Z,205.07
2018-02-16T23:36:10.286Z,243.40
2018-02-16T23:38:37.384Z,444.30
2018-02-16T23:41:03.754Z,101.67
2018-02-16T23:43:30.088Z,105.60
2018-02-16T23:45:56.452Z,160.27
2018-02-16T23:48:22.818Z,323.97
2018-02-16T23:50:49.961Z,187.17
2018-02-16T23:53:16.331Z,153.97
2018-02-16T23:55:42.763Z,101.70
2018-02-16T23:58:09.164Z,416.43
